Cele, Texas
Current Conditions -  °F | °C
As of 11:55 AM on Sunday 25 Jan 2015 (Local Time) from KEDC Reporting Station
Clear Clear  
Wind Chill: 64°   Ceiling: Unl
Heat Index: 64°   Visibility: 10mi
Dew Point: 41°   Wind: 15mph
Humidity: 42%   Direction: 10°N
Pressure: 30.09"   Gusts: 18mph
Location:  30.352°N, 97.5205°W
Report Text: KEDC 251755Z AUTO 01013G16KT 10SM CLR 18/05 A3009 RMK AO2
Loading
Personal Weather Stations






























Interactive Weather Map New forecast layout! Learn more

10-Day Weather Forecast

Advertisements
Track Severe Weather on mobile